ITY4221 LIRF-LEBL
Flight info
| Callsign | ITY4221 |
|---|---|
| Flight time | 1h 25m |
| Altitude | 35000 |
| Route | ESINO DCT ABIDU DCT EPIKU/N0435F360 DCT GINOX DCT KIFMI DCT ELVOP DCT MUREN DCT CHELY DCT VERSO |
| Aircraft | A320/M-SDE3FGHIRWY/LB1 |
Departure
| Time | 2026-05-06 11:39 |
|---|---|
| Airport | Rome–Fiumicino Leonardo da Vinci International Airport (LIRF) |
Arrival
| Time | 2026-05-06 13:05 |
|---|---|
| Airport | Josep Tarradellas Barcelona-El Prat Airport (LEBL) |
| Time | Latitude | Longitude | Altitude | Speed | Heading |
|---|---|---|---|---|---|
| 2026-05-06 11:09 | 41.79767 | 12.24819 | 14 ft | 0 kts | 250° |
| 2026-05-06 11:30 | 41.79775 | 12.24848 | 14 ft | 4 kts | 250° |
| 2026-05-06 11:30 | 41.79783 | 12.24876 | 15 ft | 4 kts | 254° |
| 2026-05-06 11:30 | 41.79783 | 12.24908 | 15 ft | 4 kts | 307° |
| 2026-05-06 11:30 | 41.79764 | 12.24928 | 14 ft | 2 kts | 340° |
| 2026-05-06 11:31 | 41.79777 | 12.24922 | 14 ft | 4 kts | 340° |
| 2026-05-06 11:31 | 41.79802 | 12.24910 | 16 ft | 4 kts | 340° |
| 2026-05-06 11:31 | 41.79827 | 12.24897 | 14 ft | 4 kts | 340° |
| 2026-05-06 11:31 | 41.79853 | 12.24885 | 14 ft | 4 kts | 340° |
| 2026-05-06 11:32 | 41.79878 | 12.24872 | 14 ft | 3 kts | 340° |
| 2026-05-06 11:32 | 41.79880 | 12.24871 | 14 ft | 0 kts | 340° |
| 2026-05-06 11:34 | 41.79882 | 12.24870 | 14 ft | 2 kts | 340° |
| 2026-05-06 11:34 | 41.79954 | 12.24835 | 15 ft | 15 kts | 339° |
| 2026-05-06 11:34 | 41.80048 | 12.24787 | 14 ft | 14 kts | 339° |
| 2026-05-06 11:34 | 41.80138 | 12.24778 | 14 ft | 13 kts | 13° |
| 2026-05-06 11:35 | 41.80199 | 12.24886 | 14 ft | 18 kts | 77° |
| 2026-05-06 11:35 | 41.80208 | 12.25057 | 14 ft | 19 kts | 82° |
| 2026-05-06 11:35 | 41.80253 | 12.25237 | 14 ft | 21 kts | 70° |
| 2026-05-06 11:35 | 41.80306 | 12.25429 | 17 ft | 22 kts | 70° |
| 2026-05-06 11:36 | 41.80359 | 12.25632 | 17 ft | 24 kts | 69° |
| 2026-05-06 11:36 | 41.80419 | 12.25839 | 16 ft | 19 kts | 65° |
| 2026-05-06 11:36 | 41.80469 | 12.26015 | 15 ft | 21 kts | 73° |
| 2026-05-06 11:36 | 41.80519 | 12.26210 | 16 ft | 23 kts | 70° |
| 2026-05-06 11:37 | 41.80574 | 12.26416 | 16 ft | 24 kts | 71° |
| 2026-05-06 11:37 | 41.80635 | 12.26635 | 18 ft | 26 kts | 69° |
| 2026-05-06 11:37 | 41.80699 | 12.26868 | 14 ft | 28 kts | 70° |
| 2026-05-06 11:37 | 41.80760 | 12.27023 | 15 ft | 15 kts | 26° |
| 2026-05-06 11:38 | 41.80858 | 12.27013 | 13 ft | 14 kts | 344° |
| 2026-05-06 11:38 | 41.80942 | 12.26969 | 14 ft | 12 kts | 329° |
| 2026-05-06 11:38 | 41.80950 | 12.26901 | 13 ft | 0 kts | 251° |
| 2026-05-06 11:39 | 41.80892 | 12.26693 | 14 ft | 67 kts | 249° |
| 2026-05-06 11:39 | 41.80619 | 12.25725 | 17 ft | 151 kts | 249° |
| 2026-05-06 11:39 | 41.80176 | 12.24190 | 359 ft | 189 kts | 246° |
| 2026-05-06 11:39 | 41.79709 | 12.22546 | 1411 ft | 189 kts | 245° |
| 2026-05-06 11:40 | 41.79283 | 12.20837 | 2112 ft | 203 kts | 259° |
| 2026-05-06 11:40 | 41.79235 | 12.18893 | 2737 ft | 212 kts | 267° |
| 2026-05-06 11:40 | 41.79199 | 12.16916 | 3570 ft | 212 kts | 264° |
| 2026-05-06 11:40 | 41.78819 | 12.15021 | 4317 ft | 213 kts | 239° |
| 2026-05-06 11:41 | 41.77879 | 12.13498 | 5081 ft | 213 kts | 220° |
| 2026-05-06 11:41 | 41.76787 | 12.12150 | 5886 ft | 214 kts | 220° |
| 2026-05-06 11:41 | 41.75684 | 12.10789 | 6663 ft | 216 kts | 220° |
| 2026-05-06 11:41 | 41.74572 | 12.09415 | 7427 ft | 219 kts | 220° |
| 2026-05-06 11:42 | 41.73452 | 12.08029 | 8188 ft | 221 kts | 220° |
| 2026-05-06 11:42 | 41.72320 | 12.06624 | 8945 ft | 222 kts | 221° |
| 2026-05-06 11:42 | 41.71132 | 12.05295 | 9689 ft | 224 kts | 210° |
| 2026-05-06 11:42 | 41.69685 | 12.04499 | 10336 ft | 233 kts | 193° |
| 2026-05-06 11:43 | 41.67983 | 12.04345 | 10642 ft | 258 kts | 182° |
| 2026-05-06 11:43 | 41.66105 | 12.04350 | 10959 ft | 282 kts | 182° |
| 2026-05-06 11:43 | 41.64056 | 12.04338 | 11243 ft | 306 kts | 185° |
| 2026-05-06 11:44 | 41.60005 | 12.02207 | 12263 ft | 324 kts | 220° |
| 2026-05-06 11:44 | 41.58236 | 12.00322 | 13048 ft | 327 kts | 220° |
| 2026-05-06 11:44 | 41.56454 | 11.98427 | 13815 ft | 329 kts | 220° |
| 2026-05-06 11:44 | 41.54653 | 11.96517 | 14576 ft | 332 kts | 220° |
| 2026-05-06 11:45 | 41.52835 | 11.94595 | 15300 ft | 335 kts | 220° |
| 2026-05-06 11:45 | 41.50999 | 11.92660 | 16010 ft | 337 kts | 220° |
| 2026-05-06 11:45 | 41.49149 | 11.90710 | 16695 ft | 340 kts | 220° |
| 2026-05-06 11:45 | 41.47287 | 11.88750 | 17366 ft | 343 kts | 220° |
| 2026-05-06 11:46 | 41.45405 | 11.86770 | 18006 ft | 346 kts | 219° |
| 2026-05-06 11:46 | 41.43534 | 11.84803 | 18644 ft | 349 kts | 219° |
| 2026-05-06 11:46 | 41.41597 | 11.82766 | 19281 ft | 351 kts | 219° |
| 2026-05-06 11:46 | 41.39795 | 11.80638 | 19891 ft | 353 kts | 228° |
| 2026-05-06 11:47 | 41.38318 | 11.78025 | 20485 ft | 355 kts | 239° |
| 2026-05-06 11:47 | 41.37270 | 11.75034 | 21084 ft | 359 kts | 249° |
| 2026-05-06 11:47 | 41.36430 | 11.71893 | 21664 ft | 361 kts | 249° |
| 2026-05-06 11:47 | 41.35578 | 11.68734 | 22238 ft | 364 kts | 249° |
| 2026-05-06 11:48 | 41.34713 | 11.65555 | 22793 ft | 366 kts | 249° |
| 2026-05-06 11:48 | 41.33842 | 11.62360 | 23331 ft | 369 kts | 249° |
| 2026-05-06 11:48 | 41.32963 | 11.59136 | 23853 ft | 372 kts | 248° |
| 2026-05-06 11:48 | 41.32077 | 11.55888 | 24361 ft | 375 kts | 249° |
| 2026-05-06 11:49 | 41.31187 | 11.52627 | 24847 ft | 377 kts | 248° |
| 2026-05-06 11:49 | 41.30286 | 11.49337 | 25337 ft | 379 kts | 248° |
| 2026-05-06 11:49 | 41.29381 | 11.46039 | 25811 ft | 380 kts | 248° |
| 2026-05-06 11:49 | 41.28471 | 11.42732 | 26245 ft | 383 kts | 248° |
| 2026-05-06 11:50 | 41.27553 | 11.39402 | 26677 ft | 384 kts | 248° |
| 2026-05-06 11:50 | 41.26632 | 11.36057 | 27102 ft | 386 kts | 248° |
| 2026-05-06 11:50 | 41.25707 | 11.32698 | 27522 ft | 388 kts | 248° |
| 2026-05-06 11:50 | 41.24778 | 11.29325 | 27934 ft | 389 kts | 248° |
| 2026-05-06 11:51 | 41.23844 | 11.25940 | 28323 ft | 391 kts | 248° |
| 2026-05-06 11:51 | 41.22984 | 11.22829 | 28666 ft | 393 kts | 248° |
| 2026-05-06 11:51 | 41.22040 | 11.19417 | 29037 ft | 394 kts | 248° |
| 2026-05-06 11:51 | 41.21094 | 11.15994 | 29403 ft | 395 kts | 248° |
| 2026-05-06 11:52 | 41.20146 | 11.12569 | 29767 ft | 396 kts | 248° |
| 2026-05-06 11:52 | 41.19194 | 11.09125 | 30096 ft | 398 kts | 248° |
| 2026-05-06 11:52 | 41.18235 | 11.05669 | 30421 ft | 399 kts | 248° |
| 2026-05-06 11:52 | 41.17271 | 11.02202 | 30719 ft | 401 kts | 248° |
| 2026-05-06 11:53 | 41.16299 | 10.98730 | 31000 ft | 403 kts | 248° |
| 2026-05-06 11:53 | 41.15317 | 10.95229 | 31266 ft | 405 kts | 248° |
| 2026-05-06 11:53 | 41.14334 | 10.91722 | 31542 ft | 406 kts | 248° |
| 2026-05-06 11:53 | 41.13352 | 10.88222 | 31898 ft | 405 kts | 248° |
| 2026-05-06 11:54 | 41.12366 | 10.84722 | 32275 ft | 403 kts | 248° |
| 2026-05-06 11:54 | 41.11387 | 10.81250 | 32647 ft | 402 kts | 247° |
| 2026-05-06 11:54 | 41.10410 | 10.77782 | 33008 ft | 401 kts | 247° |
| 2026-05-06 11:54 | 41.09438 | 10.74333 | 33361 ft | 399 kts | 247° |
| 2026-05-06 11:55 | 41.08466 | 10.70888 | 33722 ft | 398 kts | 247° |
| 2026-05-06 11:55 | 41.07511 | 10.67502 | 34075 ft | 397 kts | 247° |
| 2026-05-06 11:55 | 41.06544 | 10.64080 | 34412 ft | 396 kts | 247° |
| 2026-05-06 11:55 | 41.05577 | 10.60667 | 34739 ft | 395 kts | 247° |
| 2026-05-06 11:56 | 41.04609 | 10.57258 | 34930 ft | 395 kts | 247° |
| 2026-05-06 11:56 | 41.03651 | 10.53890 | 34970 ft | 388 kts | 247° |
| 2026-05-06 11:56 | 41.01766 | 10.47247 | 34971 ft | 383 kts | 247° |
| 2026-05-06 11:57 | 40.99884 | 10.40645 | 34974 ft | 382 kts | 247° |
| 2026-05-06 11:57 | 40.98689 | 10.33785 | 34971 ft | 388 kts | 263° |
| 2026-05-06 11:58 | 40.98367 | 10.26663 | 34969 ft | 388 kts | 262° |
| 2026-05-06 11:58 | 40.98022 | 10.19538 | 34967 ft | 388 kts | 262° |
| 2026-05-06 11:59 | 40.97661 | 10.12421 | 34970 ft | 387 kts | 262° |
| 2026-05-06 11:59 | 40.97294 | 10.05320 | 34964 ft | 387 kts | 262° |
| 2026-05-06 12:00 | 40.96991 | 9.99421 | 34955 ft | 386 kts | 262° |
| 2026-05-06 12:00 | 40.96630 | 9.92340 | 34951 ft | 386 kts | 261° |
| 2026-05-06 12:01 | 40.96258 | 9.85263 | 34950 ft | 386 kts | 261° |
| 2026-05-06 12:01 | 40.95878 | 9.78177 | 34948 ft | 386 kts | 261° |
| 2026-05-06 12:02 | 40.95493 | 9.71112 | 34944 ft | 385 kts | 261° |
| 2026-05-06 12:02 | 40.95104 | 9.64050 | 34943 ft | 385 kts | 261° |
| 2026-05-06 12:03 | 40.94721 | 9.56995 | 34942 ft | 385 kts | 261° |
| 2026-05-06 12:03 | 40.94332 | 9.49919 | 34945 ft | 385 kts | 261° |
| 2026-05-06 12:04 | 40.93937 | 9.42860 | 34943 ft | 385 kts | 261° |
| 2026-05-06 12:04 | 40.93531 | 9.35802 | 34943 ft | 385 kts | 261° |
| 2026-05-06 12:05 | 40.93121 | 9.28735 | 34941 ft | 385 kts | 261° |
| 2026-05-06 12:05 | 40.92713 | 9.21665 | 34943 ft | 385 kts | 260° |
| 2026-05-06 12:06 | 40.92301 | 9.14600 | 34942 ft | 386 kts | 260° |
| 2026-05-06 12:06 | 40.91887 | 9.07574 | 34951 ft | 386 kts | 260° |
| 2026-05-06 12:07 | 40.91467 | 9.00506 | 34947 ft | 386 kts | 260° |
| 2026-05-06 12:07 | 40.91037 | 8.93441 | 34952 ft | 386 kts | 260° |
| 2026-05-06 12:08 | 40.90605 | 8.86364 | 34955 ft | 386 kts | 260° |
| 2026-05-06 12:08 | 40.90169 | 8.79290 | 34956 ft | 386 kts | 260° |
| 2026-05-06 12:09 | 40.89726 | 8.72213 | 34960 ft | 386 kts | 259° |
| 2026-05-06 12:09 | 40.89276 | 8.65139 | 34966 ft | 386 kts | 259° |
| 2026-05-06 12:10 | 40.88826 | 8.58084 | 34987 ft | 384 kts | 261° |
| 2026-05-06 12:10 | 40.88384 | 8.51108 | 34997 ft | 382 kts | 261° |
| 2026-05-06 12:11 | 40.87936 | 8.44128 | 34998 ft | 380 kts | 261° |
| 2026-05-06 12:11 | 40.87483 | 8.37182 | 34996 ft | 379 kts | 261° |
| 2026-05-06 12:12 | 40.87022 | 8.30260 | 34993 ft | 377 kts | 260° |
| 2026-05-06 12:12 | 40.86562 | 8.23362 | 34988 ft | 377 kts | 260° |
| 2026-05-06 12:13 | 40.86100 | 8.16467 | 34986 ft | 377 kts | 260° |
| 2026-05-06 12:13 | 40.85787 | 8.09555 | 34981 ft | 380 kts | 268° |
| 2026-05-06 12:14 | 40.86112 | 8.02619 | 34980 ft | 381 kts | 268° |
| 2026-05-06 12:14 | 40.86485 | 7.95596 | 34976 ft | 381 kts | 269° |
| 2026-05-06 12:15 | 40.86983 | 7.88658 | 34973 ft | 382 kts | 270° |
| 2026-05-06 12:15 | 40.87494 | 7.81671 | 34972 ft | 382 kts | 270° |
| 2026-05-06 12:16 | 40.87983 | 7.74680 | 34971 ft | 382 kts | 270° |
| 2026-05-06 12:16 | 40.88454 | 7.67690 | 34969 ft | 382 kts | 270° |
| 2026-05-06 12:17 | 40.88918 | 7.60708 | 34966 ft | 382 kts | 269° |
| 2026-05-06 12:17 | 40.89380 | 7.53718 | 34964 ft | 382 kts | 270° |
| 2026-05-06 12:18 | 40.89844 | 7.46719 | 34962 ft | 382 kts | 269° |
| 2026-05-06 12:18 | 40.90296 | 7.39719 | 34963 ft | 382 kts | 269° |
| 2026-05-06 12:19 | 40.90739 | 7.32760 | 34962 ft | 382 kts | 269° |
| 2026-05-06 12:19 | 40.91187 | 7.25764 | 34960 ft | 382 kts | 269° |
| 2026-05-06 12:20 | 40.91637 | 7.18769 | 34960 ft | 382 kts | 269° |
| 2026-05-06 12:20 | 40.92077 | 7.11755 | 34958 ft | 382 kts | 269° |
| 2026-05-06 12:21 | 40.92505 | 7.04747 | 34956 ft | 383 kts | 269° |
| 2026-05-06 12:21 | 40.92932 | 6.97713 | 34957 ft | 384 kts | 269° |
| 2026-05-06 12:22 | 40.93367 | 6.90664 | 34959 ft | 385 kts | 269° |
| 2026-05-06 12:22 | 40.93791 | 6.83650 | 34960 ft | 384 kts | 269° |
| 2026-05-06 12:23 | 40.94213 | 6.76598 | 34962 ft | 384 kts | 269° |
| 2026-05-06 12:23 | 40.94629 | 6.69556 | 34960 ft | 384 kts | 269° |
| 2026-05-06 12:24 | 40.95038 | 6.62504 | 34958 ft | 384 kts | 269° |
| 2026-05-06 12:24 | 40.95438 | 6.55452 | 34954 ft | 385 kts | 269° |
| 2026-05-06 12:25 | 40.95839 | 6.48386 | 34953 ft | 385 kts | 269° |
| 2026-05-06 12:25 | 40.96236 | 6.41321 | 34950 ft | 386 kts | 269° |
| 2026-05-06 12:26 | 40.96631 | 6.34238 | 34951 ft | 386 kts | 269° |
| 2026-05-06 12:26 | 40.97020 | 6.27152 | 34952 ft | 386 kts | 269° |
| 2026-05-06 12:27 | 40.97408 | 6.20115 | 34952 ft | 386 kts | 269° |
| 2026-05-06 12:27 | 40.97785 | 6.13038 | 34952 ft | 386 kts | 269° |
| 2026-05-06 12:28 | 40.98159 | 6.05955 | 34957 ft | 386 kts | 269° |
| 2026-05-06 12:28 | 40.98533 | 5.98858 | 34960 ft | 386 kts | 269° |
| 2026-05-06 12:29 | 40.98905 | 5.91776 | 34961 ft | 386 kts | 269° |
| 2026-05-06 12:29 | 40.99276 | 5.84689 | 34960 ft | 386 kts | 269° |
| 2026-05-06 12:30 | 40.99640 | 5.77607 | 34961 ft | 385 kts | 269° |
| 2026-05-06 12:30 | 40.99986 | 5.70531 | 34961 ft | 385 kts | 268° |
| 2026-05-06 12:31 | 41.00333 | 5.63459 | 34962 ft | 385 kts | 268° |
| 2026-05-06 12:31 | 41.00684 | 5.56386 | 34963 ft | 385 kts | 269° |
| 2026-05-06 12:32 | 41.01031 | 5.49318 | 34964 ft | 384 kts | 268° |
| 2026-05-06 12:32 | 41.01364 | 5.42263 | 34965 ft | 384 kts | 268° |
| 2026-05-06 12:33 | 41.01700 | 5.35207 | 34965 ft | 384 kts | 269° |
| 2026-05-06 12:33 | 41.02072 | 5.28147 | 34967 ft | 384 kts | 269° |
| 2026-05-06 12:34 | 41.02451 | 5.21092 | 34968 ft | 384 kts | 269° |
| 2026-05-06 12:34 | 41.02816 | 5.14084 | 34966 ft | 384 kts | 269° |
| 2026-05-06 12:35 | 41.03167 | 5.07033 | 34966 ft | 383 kts | 268° |
| 2026-05-06 12:35 | 41.03513 | 4.99993 | 34968 ft | 383 kts | 268° |
| 2026-05-06 12:36 | 41.03867 | 4.92962 | 34969 ft | 383 kts | 269° |
| 2026-05-06 12:36 | 41.04217 | 4.85938 | 34967 ft | 382 kts | 268° |
| 2026-05-06 12:37 | 41.04558 | 4.78917 | 34967 ft | 382 kts | 268° |
| 2026-05-06 12:37 | 41.05085 | 4.71799 | 34962 ft | 394 kts | 272° |
| 2026-05-06 12:38 | 41.05435 | 4.68505 | 34613 ft | 396 kts | 273° |
| 2026-05-06 12:38 | 41.05852 | 4.64876 | 33440 ft | 395 kts | 273° |
| 2026-05-06 12:38 | 41.06285 | 4.61291 | 32396 ft | 392 kts | 273° |
| 2026-05-06 12:38 | 41.06706 | 4.57791 | 31815 ft | 377 kts | 272° |
| 2026-05-06 12:39 | 41.07104 | 4.54421 | 31339 ft | 361 kts | 272° |
| 2026-05-06 12:39 | 41.07469 | 4.51190 | 30871 ft | 347 kts | 271° |
| 2026-05-06 12:39 | 41.07807 | 4.48083 | 30437 ft | 334 kts | 271° |
| 2026-05-06 12:39 | 41.08125 | 4.45099 | 30024 ft | 321 kts | 270° |
| 2026-05-06 12:40 | 41.08430 | 4.42190 | 29627 ft | 319 kts | 270° |
| 2026-05-06 12:40 | 41.08730 | 4.39280 | 29228 ft | 317 kts | 270° |
| 2026-05-06 12:40 | 41.09025 | 4.36427 | 28839 ft | 315 kts | 270° |
| 2026-05-06 12:40 | 41.09324 | 4.33555 | 28465 ft | 313 kts | 270° |
| 2026-05-06 12:41 | 41.09622 | 4.30698 | 28087 ft | 312 kts | 270° |
| 2026-05-06 12:41 | 41.09921 | 4.27861 | 27705 ft | 310 kts | 270° |
| 2026-05-06 12:41 | 41.10219 | 4.25035 | 27320 ft | 309 kts | 271° |
| 2026-05-06 12:41 | 41.10514 | 4.22222 | 26933 ft | 307 kts | 271° |
| 2026-05-06 12:42 | 41.10808 | 4.19419 | 26535 ft | 306 kts | 271° |
| 2026-05-06 12:42 | 41.11101 | 4.16632 | 26131 ft | 305 kts | 271° |
| 2026-05-06 12:42 | 41.11393 | 4.13853 | 25726 ft | 304 kts | 271° |
| 2026-05-06 12:42 | 41.11683 | 4.11085 | 25311 ft | 302 kts | 271° |
| 2026-05-06 12:43 | 41.11968 | 4.08336 | 24902 ft | 301 kts | 271° |
| 2026-05-06 12:43 | 41.12253 | 4.05595 | 24477 ft | 299 kts | 271° |
| 2026-05-06 12:43 | 41.12535 | 4.02865 | 24051 ft | 298 kts | 271° |
| 2026-05-06 12:43 | 41.12814 | 4.00154 | 23631 ft | 297 kts | 271° |
| 2026-05-06 12:44 | 41.13095 | 3.97448 | 23210 ft | 295 kts | 271° |
| 2026-05-06 12:44 | 41.13374 | 3.94752 | 22791 ft | 294 kts | 271° |
| 2026-05-06 12:44 | 41.13648 | 3.92074 | 22387 ft | 293 kts | 271° |
| 2026-05-06 12:44 | 41.13921 | 3.89401 | 21982 ft | 292 kts | 272° |
| 2026-05-06 12:45 | 41.14189 | 3.86735 | 21584 ft | 291 kts | 272° |
| 2026-05-06 12:45 | 41.14455 | 3.84079 | 21187 ft | 290 kts | 272° |
| 2026-05-06 12:45 | 41.14988 | 3.78797 | 20402 ft | 288 kts | 272° |
| 2026-05-06 12:46 | 41.15252 | 3.76177 | 20014 ft | 286 kts | 272° |
| 2026-05-06 12:46 | 41.15495 | 3.73754 | 19698 ft | 294 kts | 272° |
| 2026-05-06 12:46 | 41.15766 | 3.71030 | 19366 ft | 299 kts | 272° |
| 2026-05-06 12:46 | 41.16040 | 3.68295 | 19026 ft | 299 kts | 273° |
| 2026-05-06 12:47 | 41.16318 | 3.65561 | 18689 ft | 298 kts | 273° |
| 2026-05-06 12:47 | 41.16595 | 3.62837 | 18352 ft | 297 kts | 273° |
| 2026-05-06 12:47 | 41.16866 | 3.60128 | 18017 ft | 295 kts | 273° |
| 2026-05-06 12:47 | 41.17130 | 3.57467 | 17688 ft | 294 kts | 273° |
| 2026-05-06 12:48 | 41.17399 | 3.54744 | 17351 ft | 293 kts | 273° |
| 2026-05-06 12:48 | 41.17662 | 3.52070 | 17020 ft | 292 kts | 273° |
| 2026-05-06 12:48 | 41.17923 | 3.49431 | 16694 ft | 292 kts | 273° |
| 2026-05-06 12:48 | 41.18187 | 3.46760 | 16363 ft | 291 kts | 273° |
| 2026-05-06 12:49 | 41.18448 | 3.44103 | 16036 ft | 290 kts | 274° |
| 2026-05-06 12:49 | 41.18709 | 3.41448 | 15708 ft | 290 kts | 274° |
| 2026-05-06 12:49 | 41.18968 | 3.38799 | 15378 ft | 289 kts | 274° |
| 2026-05-06 12:49 | 41.19226 | 3.36160 | 15054 ft | 288 kts | 274° |
| 2026-05-06 12:50 | 41.19481 | 3.33527 | 14729 ft | 287 kts | 274° |
| 2026-05-06 12:50 | 41.19649 | 3.31789 | 14513 ft | 286 kts | 274° |
| 2026-05-06 12:50 | 41.19905 | 3.29139 | 14185 ft | 286 kts | 274° |
| 2026-05-06 12:50 | 41.20153 | 3.26558 | 13867 ft | 285 kts | 274° |
| 2026-05-06 12:51 | 41.20404 | 3.23951 | 13543 ft | 284 kts | 275° |
| 2026-05-06 12:51 | 41.20652 | 3.21355 | 13227 ft | 283 kts | 275° |
| 2026-05-06 12:51 | 41.20898 | 3.18771 | 12903 ft | 282 kts | 275° |
| 2026-05-06 12:51 | 41.21142 | 3.16188 | 12586 ft | 281 kts | 275° |
| 2026-05-06 12:52 | 41.21376 | 3.13612 | 12272 ft | 281 kts | 275° |
| 2026-05-06 12:52 | 41.21607 | 3.11037 | 11948 ft | 281 kts | 275° |
| 2026-05-06 12:52 | 41.21834 | 3.08473 | 11634 ft | 279 kts | 275° |
| 2026-05-06 12:52 | 41.22061 | 3.05910 | 11317 ft | 279 kts | 275° |
| 2026-05-06 12:53 | 41.22285 | 3.03354 | 11003 ft | 278 kts | 275° |
| 2026-05-06 12:53 | 41.22507 | 3.00810 | 10694 ft | 277 kts | 275° |
| 2026-05-06 12:53 | 41.22730 | 2.98267 | 10378 ft | 277 kts | 275° |
| 2026-05-06 12:53 | 41.22954 | 2.95727 | 10061 ft | 277 kts | 275° |
| 2026-05-06 12:54 | 41.23177 | 2.93191 | 9749 ft | 276 kts | 275° |
| 2026-05-06 12:54 | 41.23399 | 2.90664 | 9440 ft | 276 kts | 275° |
| 2026-05-06 12:54 | 41.23622 | 2.88132 | 9130 ft | 275 kts | 275° |
| 2026-05-06 12:54 | 41.23841 | 2.85605 | 8819 ft | 275 kts | 275° |
| 2026-05-06 12:55 | 41.24058 | 2.83083 | 8514 ft | 274 kts | 275° |
| 2026-05-06 12:55 | 41.24256 | 2.80798 | 8239 ft | 273 kts | 275° |
| 2026-05-06 12:55 | 41.24473 | 2.78293 | 7931 ft | 272 kts | 275° |
| 2026-05-06 12:55 | 41.24684 | 2.75802 | 7627 ft | 272 kts | 275° |
| 2026-05-06 12:56 | 41.24895 | 2.73313 | 7327 ft | 271 kts | 275° |
| 2026-05-06 12:56 | 41.25107 | 2.70828 | 7027 ft | 270 kts | 275° |
| 2026-05-06 12:56 | 41.25316 | 2.68355 | 6724 ft | 269 kts | 275° |
| 2026-05-06 12:56 | 41.25683 | 2.65924 | 6421 ft | 270 kts | 288° |
| 2026-05-06 12:57 | 41.26464 | 2.63661 | 6120 ft | 269 kts | 295° |
| 2026-05-06 12:57 | 41.27308 | 2.61439 | 5839 ft | 269 kts | 295° |
| 2026-05-06 12:57 | 41.28147 | 2.59219 | 5548 ft | 268 kts | 295° |
| 2026-05-06 12:57 | 41.28980 | 2.57000 | 5246 ft | 268 kts | 295° |
| 2026-05-06 12:58 | 41.29807 | 2.54792 | 4946 ft | 267 kts | 295° |
| 2026-05-06 12:58 | 41.30634 | 2.52584 | 4649 ft | 266 kts | 295° |
| 2026-05-06 12:58 | 41.31456 | 2.50391 | 4345 ft | 265 kts | 295° |
| 2026-05-06 12:58 | 41.32278 | 2.48191 | 4045 ft | 266 kts | 295° |
| 2026-05-06 12:59 | 41.33086 | 2.46027 | 3914 ft | 254 kts | 295° |
| 2026-05-06 12:59 | 41.33853 | 2.43980 | 3825 ft | 241 kts | 295° |
| 2026-05-06 12:59 | 41.34584 | 2.42028 | 3720 ft | 230 kts | 295° |
| 2026-05-06 12:59 | 41.35276 | 2.40175 | 3615 ft | 219 kts | 295° |
| 2026-05-06 13:00 | 41.35950 | 2.38370 | 3525 ft | 218 kts | 295° |
| 2026-05-06 13:00 | 41.36621 | 2.36565 | 3433 ft | 217 kts | 295° |
| 2026-05-06 13:00 | 41.37289 | 2.34762 | 3330 ft | 217 kts | 294° |
| 2026-05-06 13:00 | 41.37698 | 2.32851 | 3233 ft | 215 kts | 272° |
| 2026-05-06 13:01 | 41.37538 | 2.30906 | 3109 ft | 210 kts | 249° |
| 2026-05-06 13:01 | 41.36958 | 2.29116 | 2974 ft | 211 kts | 244° |
| 2026-05-06 13:01 | 41.36351 | 2.27336 | 2740 ft | 210 kts | 244° |
| 2026-05-06 13:01 | 41.35758 | 2.25589 | 2468 ft | 208 kts | 244° |
| 2026-05-06 13:02 | 41.35177 | 2.23881 | 2197 ft | 197 kts | 244° |
| 2026-05-06 13:02 | 41.34623 | 2.22253 | 1942 ft | 190 kts | 243° |
| 2026-05-06 13:02 | 41.34091 | 2.20690 | 1721 ft | 179 kts | 244° |
| 2026-05-06 13:02 | 41.33587 | 2.19210 | 1464 ft | 167 kts | 243° |
| 2026-05-06 13:03 | 41.33131 | 2.17868 | 1259 ft | 154 kts | 243° |
| 2026-05-06 13:03 | 41.32712 | 2.16639 | 1062 ft | 140 kts | 242° |
| 2026-05-06 13:03 | 41.32318 | 2.15485 | 877 ft | 135 kts | 242° |
| 2026-05-06 13:03 | 41.31932 | 2.14355 | 696 ft | 133 kts | 243° |
| 2026-05-06 13:04 | 41.31551 | 2.13242 | 524 ft | 132 kts | 243° |
| 2026-05-06 13:04 | 41.31172 | 2.12133 | 347 ft | 132 kts | 244° |
| 2026-05-06 13:04 | 41.30789 | 2.11011 | 176 ft | 133 kts | 243° |
| 2026-05-06 13:04 | 41.30408 | 2.09897 | 11 ft | 131 kts | 245° |
| 2026-05-06 13:05 | 41.30111 | 2.09025 | 6 ft | 63 kts | 245° |
| 2026-05-06 13:05 | 41.30001 | 2.08727 | 7 ft | 29 kts | 236° |
| 2026-05-06 13:05 | 41.29849 | 2.08548 | 5 ft | 30 kts | 214° |
| 2026-05-06 13:05 | 41.29714 | 2.08405 | 3 ft | 14 kts | 259° |
| 2026-05-06 13:06 | 41.29678 | 2.08278 | 4 ft | 16 kts | 242° |
| 2026-05-06 13:06 | 41.29577 | 2.08254 | 3 ft | 17 kts | 160° |
| 2026-05-06 13:06 | 41.29467 | 2.08324 | 4 ft | 18 kts | 154° |
| 2026-05-06 13:06 | 41.29367 | 2.08303 | 3 ft | 16 kts | 212° |
| 2026-05-06 13:07 | 41.29295 | 2.08255 | 3 ft | 7 kts | 200° |
| 2026-05-06 13:07 | 41.29258 | 2.08233 | 3 ft | 5 kts | 204° |
| 2026-05-06 13:07 | 41.29240 | 2.08223 | 3 ft | 0 kts | 202° |